createdAt,value
2017-02-15T00:01:02.622Z,30
2017-02-15T00:02:07.954Z,30
2017-02-15T00:03:13.383Z,30
2017-02-15T00:04:19.384Z,30
2017-02-15T00:05:25.393Z,30
2017-02-15T00:06:31.398Z,30
2017-02-15T00:07:36.743Z,30
2017-02-15T00:08:42.748Z,30
2017-02-15T00:09:48.796Z,30
2017-02-15T00:10:54.757Z,30
2017-02-15T00:12:00.799Z,30
2017-02-15T00:13:06.801Z,30
2017-02-15T00:14:12.803Z,30
2017-02-15T00:15:18.805Z,30
2017-02-15T00:16:24.849Z,30
2017-02-15T00:17:30.858Z,30
2017-02-15T00:18:36.908Z,30
2017-02-15T00:19:42.906Z,30
2017-02-15T00:20:49.049Z,30
2017-02-15T00:21:54.920Z,30
2017-02-15T00:23:00.921Z,30
2017-02-15T00:24:07.006Z,30
2017-02-15T00:25:12.963Z,30
2017-02-15T00:26:18.968Z,30
2017-02-15T00:27:24.968Z,30
2017-02-15T00:28:31.253Z,30
2017-02-15T00:29:37.254Z,30
2017-02-15T00:30:43.305Z,30
2017-02-15T00:31:49.370Z,30
2017-02-15T00:32:55.400Z,30
2017-02-15T00:34:01.403Z,30
2017-02-15T00:35:07.410Z,30
2017-02-15T00:36:13.410Z,30
2017-02-15T00:37:19.415Z,30
2017-02-15T00:38:24.313Z,30
2017-02-15T00:39:30.315Z,30
2017-02-15T00:40:36.322Z,30
2017-02-15T00:41:42.442Z,30
2017-02-15T00:42:48.544Z,30
2017-02-15T00:43:53.456Z,30
2017-02-15T00:44:59.581Z,30
2017-02-15T00:46:05.589Z,32
2017-02-15T00:47:10.919Z,32
2017-02-15T00:48:17.235Z,32
2017-02-15T00:49:22.959Z,32
2017-02-15T00:50:28.963Z,33
2017-02-15T00:51:34.992Z,33
2017-02-15T00:52:41.180Z,33
2017-02-15T00:53:47.155Z,33
2017-02-15T00:54:53.162Z,33
2017-02-15T00:55:59.262Z,33
2017-02-15T00:57:05.273Z,33
2017-02-15T00:58:11.272Z,33
2017-02-15T00:59:17.274Z,33
2017-02-15T01:00:23.300Z,32
2017-02-15T01:01:29.311Z,32
2017-02-15T01:02:34.636Z,32
2017-02-15T01:03:40.636Z,33
2017-02-15T01:04:46.661Z,33
2017-02-15T01:05:51.564Z,33
2017-02-15T01:06:57.561Z,32
2017-02-15T01:08:03.563Z,33
2017-02-15T01:09:09.569Z,33
2017-02-15T01:10:15.573Z,33
2017-02-15T01:11:21.575Z,34
2017-02-15T01:12:26.916Z,34
2017-02-15T01:13:31.819Z,36
2017-02-15T01:14:37.837Z,36
2017-02-15T01:15:43.838Z,36
2017-02-15T01:16:49.846Z,36
2017-02-15T01:17:55.848Z,36
2017-02-15T01:19:01.854Z,37
2017-02-15T01:20:07.190Z,37
2017-02-15T01:21:12.096Z,37
2017-02-15T01:22:18.106Z,37
2017-02-15T01:23:23.438Z,37
2017-02-15T01:24:29.437Z,37
2017-02-15T01:25:34.782Z,37
2017-02-15T01:26:40.790Z,37
2017-02-15T01:27:46.155Z,39
2017-02-15T01:28:51.467Z,39
2017-02-15T01:29:57.472Z,39
2017-02-15T01:31:03.466Z,39
2017-02-15T01:32:09.462Z,39
2017-02-15T01:33:15.475Z,39
2017-02-15T01:34:21.472Z,40
2017-02-15T01:35:27.476Z,41
2017-02-15T01:36:33.472Z,41
2017-02-15T01:37:39.476Z,41
2017-02-15T01:38:44.390Z,39
2017-02-15T01:39:49.299Z,40
2017-02-15T01:40:54.636Z,39
2017-02-15T01:42:00.688Z,41
2017-02-15T01:43:06.684Z,41
2017-02-15T01:44:12.689Z,41
2017-02-15T01:45:18.685Z,41
2017-02-15T01:46:24.691Z,41
2017-02-15T01:47:29.597Z,41
2017-02-15T01:48:35.601Z,41
2017-02-15T01:49:41.606Z,41
2017-02-15T01:50:47.606Z,41
2017-02-15T01:51:53.610Z,41
2017-02-15T01:52:59.611Z,41
2017-02-15T01:54:05.620Z,41
2017-02-15T01:55:11.622Z,41
2017-02-15T01:56:17.641Z,41
2017-02-15T01:57:23.628Z,41
2017-02-15T01:58:29.624Z,41
2017-02-15T01:59:35.633Z,41
2017-02-15T02:00:41.638Z,41
2017-02-15T02:01:47.642Z,41
2017-02-15T02:02:53.650Z,41
2017-02-15T02:03:58.988Z,41
2017-02-15T02:05:03.450Z,41
2017-02-15T02:06:09.451Z,41
2017-02-15T02:07:15.443Z,41
2017-02-15T02:08:20.790Z,41
2017-02-15T02:09:26.793Z,41
2017-02-15T02:10:31.693Z,41
2017-02-15T02:11:37.032Z,41
2017-02-15T02:12:43.238Z,41
2017-02-15T02:13:48.567Z,41
2017-02-15T02:14:54.561Z,41
2017-02-15T02:16:00.562Z,41
2017-02-15T02:17:06.558Z,41
2017-02-15T02:18:12.767Z,41
2017-02-15T02:19:17.684Z,41
2017-02-15T02:20:23.684Z,41
2017-02-15T02:21:29.685Z,42
2017-02-15T02:22:35.017Z,42
2017-02-15T02:23:41.022Z,42
2017-02-15T02:24:46.378Z,42
2017-02-15T02:25:52.384Z,42
2017-02-15T02:26:58.392Z,42
2017-02-15T02:28:04.387Z,42
2017-02-15T02:29:10.528Z,42
2017-02-15T02:30:16.530Z,42
2017-02-15T02:31:22.534Z,42
2017-02-15T02:32:26.769Z,42
2017-02-15T02:33:32.775Z,42
2017-02-15T02:34:38.776Z,42
2017-02-15T02:35:44.785Z,42
2017-02-15T02:36:50.784Z,42
2017-02-15T02:37:56.789Z,42
2017-02-15T02:39:02.130Z,43
2017-02-15T02:40:08.130Z,42
2017-02-15T02:41:14.130Z,42
2017-02-15T02:42:20.382Z,42
2017-02-15T02:43:26.379Z,42
2017-02-15T02:44:32.388Z,42
2017-02-15T02:45:38.399Z,42
2017-02-15T02:46:44.394Z,42
2017-02-15T02:47:50.390Z,42
2017-02-15T02:48:56.396Z,43
2017-02-15T02:50:02.396Z,43
2017-02-15T02:51:08.392Z,43
2017-02-15T02:52:13.286Z,43
2017-02-15T02:53:18.191Z,43
2017-02-15T02:54:23.534Z,43
2017-02-15T02:55:29.528Z,43
2017-02-15T02:56:34.435Z,43
2017-02-15T02:57:40.442Z,43
2017-02-15T02:58:46.445Z,43
2017-02-15T02:59:51.344Z,43
2017-02-15T03:00:57.346Z,43
2017-02-15T03:02:02.685Z,43
2017-02-15T03:03:08.688Z,43
2017-02-15T03:04:14.693Z,43
2017-02-15T03:05:20.698Z,43
2017-02-15T03:06:26.036Z,43
2017-02-15T03:07:30.941Z,43
2017-02-15T03:08:36.281Z,43
2017-02-15T03:09:42.274Z,44
2017-02-15T03:10:48.273Z,43
2017-02-15T03:11:54.280Z,44
2017-02-15T03:13:00.285Z,44
2017-02-15T03:14:05.626Z,44
2017-02-15T03:15:11.627Z,44
2017-02-15T03:16:17.633Z,44
2017-02-15T03:17:22.968Z,44
2017-02-15T03:18:27.875Z,44
2017-02-15T03:19:33.876Z,44
2017-02-15T03:20:39.872Z,44
2017-02-15T03:21:45.875Z,44
2017-02-15T03:22:51.882Z,44
2017-02-15T03:23:57.891Z,44
2017-02-15T03:25:03.233Z,44
2017-02-15T03:26:09.235Z,44
2017-02-15T03:27:14.576Z,44
2017-02-15T03:28:19.910Z,44
2017-02-15T03:29:25.903Z,44
2017-02-15T03:30:31.905Z,44
2017-02-15T03:31:37.907Z,44
2017-02-15T03:32:43.914Z,44
2017-02-15T03:33:49.247Z,44
2017-02-15T03:34:54.587Z,44
2017-02-15T03:36:00.597Z,44
2017-02-15T03:37:06.602Z,44
2017-02-15T03:38:12.600Z,44
2017-02-15T03:39:18.600Z,44
2017-02-15T03:40:24.598Z,44
2017-02-15T03:41:30.598Z,44
2017-02-15T03:42:35.933Z,44
2017-02-15T03:43:41.937Z,44
2017-02-15T03:44:47.939Z,44
2017-02-15T03:45:53.940Z,44
2017-02-15T03:46:59.282Z,45
2017-02-15T03:48:05.289Z,45
2017-02-15T03:49:11.290Z,45
2017-02-15T03:50:17.291Z,45
2017-02-15T03:51:23.294Z,45
2017-02-15T03:52:29.298Z,45
2017-02-15T03:53:35.294Z,45
2017-02-15T03:54:41.300Z,45
2017-02-15T03:55:46.641Z,46
2017-02-15T03:56:51.546Z,46
2017-02-15T03:57:57.542Z,46
2017-02-15T03:59:02.887Z,46
2017-02-15T04:00:08.882Z,46
2017-02-15T04:01:14.890Z,47
2017-02-15T04:02:20.895Z,47
2017-02-15T04:03:26.906Z,47
2017-02-15T04:04:31.804Z,47
2017-02-15T04:05:36.708Z,47
2017-02-15T04:06:42.713Z,47
2017-02-15T04:07:48.720Z,47
2017-02-15T04:08:54.055Z,47
2017-02-15T04:10:00.061Z,47
2017-02-15T04:11:06.067Z,47
2017-02-15T04:12:11.401Z,48
2017-02-15T04:13:16.740Z,48
2017-02-15T04:14:22.742Z,48
2017-02-15T04:15:28.746Z,48
2017-02-15T04:16:34.744Z,48
2017-02-15T04:17:40.742Z,48
2017-02-15T04:18:46.744Z,48
2017-02-15T04:19:52.750Z,48
2017-02-15T04:20:58.753Z,48
2017-02-15T04:22:04.748Z,48
2017-02-15T04:23:10.744Z,48
2017-02-15T04:24:16.750Z,48
2017-02-15T04:25:22.753Z,48
2017-02-15T04:26:28.753Z,48
2017-02-15T04:27:34.751Z,48
2017-02-15T04:28:39.656Z,48
2017-02-15T04:29:45.655Z,48
2017-02-15T04:30:51.663Z,48
2017-02-15T04:31:57.664Z,48
2017-02-15T04:33:03.668Z,48
2017-02-15T04:34:09.666Z,49
2017-02-15T04:35:15.663Z,48
2017-02-15T04:36:21.671Z,48
2017-02-15T04:37:27.012Z,48
2017-02-15T04:38:33.011Z,49
2017-02-15T04:39:39.011Z,49
2017-02-15T04:40:44.357Z,49
2017-02-15T04:41:50.348Z,50
2017-02-15T04:42:56.347Z,50
2017-02-15T04:44:02.354Z,50
2017-02-15T04:45:08.362Z,51
2017-02-15T04:46:13.257Z,51
2017-02-15T04:47:19.266Z,51
2017-02-15T04:48:25.267Z,51
2017-02-15T04:49:31.279Z,51
2017-02-15T04:50:36.616Z,51
2017-02-15T04:51:42.622Z,51
2017-02-15T04:52:48.625Z,51
2017-02-15T04:53:54.624Z,51
2017-02-15T04:55:00.629Z,51
2017-02-15T04:56:06.635Z,51
2017-02-15T04:57:12.636Z,51
2017-02-15T04:58:18.636Z,52
2017-02-15T04:59:24.643Z,52
2017-02-15T05:00:30.643Z,52
2017-02-15T05:01:36.643Z,52
2017-02-15T05:02:42.649Z,52
2017-02-15T05:03:48.655Z,52
2017-02-15T05:04:54.650Z,52
2017-02-15T05:06:00.655Z,52
2017-02-15T05:07:06.658Z,52
2017-02-15T05:08:12.662Z,52
2017-02-15T05:09:18.652Z,52
2017-02-15T05:10:24.659Z,52
2017-02-15T05:11:30.662Z,52
2017-02-15T05:12:34.904Z,52
2017-02-15T05:13:40.902Z,52
2017-02-15T05:14:46.907Z,52
2017-02-15T05:15:52.910Z,52
2017-02-15T05:16:58.251Z,52
2017-02-15T05:18:04.251Z,52
2017-02-15T05:19:10.253Z,52
2017-02-15T05:20:16.259Z,52
2017-02-15T05:21:22.259Z,52
2017-02-15T05:22:28.263Z,52
2017-02-15T05:23:32.500Z,52
2017-02-15T05:24:37.410Z,52
2017-02-15T05:25:43.414Z,52
2017-02-15T05:26:49.414Z,52
2017-02-15T05:27:55.418Z,52
2017-02-15T05:29:01.417Z,52
2017-02-15T05:30:06.757Z,52
2017-02-15T05:31:11.659Z,52
2017-02-15T05:32:17.662Z,52
2017-02-15T05:33:23.658Z,52
2017-02-15T05:34:29.664Z,52
2017-02-15T05:35:35.672Z,52
2017-02-15T05:36:41.012Z,52
2017-02-15T05:37:47.042Z,52
2017-02-15T05:38:52.356Z,52
2017-02-15T05:39:57.696Z,52
2017-02-15T05:41:03.701Z,52
2017-02-15T05:42:09.700Z,52
2017-02-15T05:43:15.704Z,52
2017-02-15T05:44:21.707Z,52
2017-02-15T05:45:27.709Z,52
2017-02-15T05:46:33.712Z,52
2017-02-15T05:47:39.714Z,52
2017-02-15T05:48:45.713Z,52
2017-02-15T05:49:51.712Z,52
2017-02-15T05:50:57.712Z,52
2017-02-15T05:52:03.705Z,52
2017-02-15T05:53:09.714Z,52
2017-02-15T05:54:15.711Z,52
2017-02-15T05:55:21.708Z,52
2017-02-15T05:56:26.614Z,52
2017-02-15T05:57:32.618Z,52
2017-02-15T05:58:38.623Z,52
2017-02-15T05:59:44.626Z,52
2017-02-15T06:00:50.631Z,52
2017-02-15T06:01:56.630Z,52
2017-02-15T06:03:02.637Z,52
2017-02-15T06:04:08.641Z,52
2017-02-15T06:05:14.639Z,52
2017-02-15T06:06:20.638Z,52
2017-02-15T06:07:26.648Z,52
2017-02-15T06:08:32.653Z,52
2017-02-15T06:09:37.544Z,53
2017-02-15T06:10:43.543Z,52
2017-02-15T06:11:49.547Z,53
2017-02-15T06:12:54.889Z,53
2017-02-15T06:14:00.889Z,53
2017-02-15T06:15:06.888Z,53
2017-02-15T06:16:12.231Z,53
2017-02-15T06:17:18.245Z,53
2017-02-15T06:18:24.241Z,53
2017-02-15T06:19:29.581Z,53
2017-02-15T06:20:35.582Z,53
2017-02-15T06:21:40.921Z,53
2017-02-15T06:22:46.928Z,53
2017-02-15T06:23:52.935Z,53
2017-02-15T06:24:58.272Z,53
2017-02-15T06:26:04.274Z,53
2017-02-15T06:27:10.278Z,53
2017-02-15T06:28:16.286Z,53
2017-02-15T06:29:21.624Z,53
2017-02-15T06:30:27.618Z,53
2017-02-15T06:31:33.621Z,53
2017-02-15T06:32:39.623Z,53
2017-02-15T06:33:45.627Z,53
2017-02-15T06:34:51.629Z,53
2017-02-15T06:35:57.639Z,53
2017-02-15T06:37:03.632Z,53
2017-02-15T06:38:09.638Z,53
2017-02-15T06:39:15.639Z,53
2017-02-15T06:40:21.644Z,53
2017-02-15T06:41:27.639Z,53
2017-02-15T06:42:32.987Z,53
2017-02-15T06:43:38.995Z,53
2017-02-15T06:44:44.992Z,53
2017-02-15T06:45:50.991Z,53
2017-02-15T06:46:56.998Z,53
2017-02-15T06:48:01.902Z,53
2017-02-15T06:49:07.910Z,53
2017-02-15T06:50:13.908Z,53
2017-02-15T06:51:19.909Z,53
2017-02-15T06:52:25.911Z,53
2017-02-15T06:53:31.910Z,53
2017-02-15T06:54:37.922Z,53
2017-02-15T06:55:43.927Z,53
2017-02-15T06:56:49.932Z,53
2017-02-15T06:57:55.929Z,53
2017-02-15T06:59:01.270Z,53
2017-02-15T07:00:07.270Z,53
2017-02-15T07:01:13.267Z,53
2017-02-15T07:02:18.167Z,53
2017-02-15T07:03:24.175Z,54
2017-02-15T07:04:30.174Z,53
2017-02-15T07:05:36.172Z,54
2017-02-15T07:06:41.506Z,54
2017-02-15T07:07:47.505Z,54
2017-02-15T07:08:53.511Z,54
2017-02-15T07:09:59.512Z,54
2017-02-15T07:11:05.520Z,54
2017-02-15T07:12:11.517Z,54
2017-02-15T07:13:17.521Z,53
2017-02-15T07:14:23.526Z,54
2017-02-15T07:15:28.871Z,54
2017-02-15T07:16:34.207Z,53
2017-02-15T07:17:40.203Z,54
2017-02-15T07:18:45.537Z,54
2017-02-15T07:19:51.537Z,53
2017-02-15T07:20:57.544Z,53
2017-02-15T07:22:03.543Z,53
2017-02-15T07:23:09.545Z,53
2017-02-15T07:24:15.546Z,53
2017-02-15T07:25:21.543Z,53
2017-02-15T07:26:26.887Z,53
2017-02-15T07:27:32.226Z,53
2017-02-15T07:28:38.229Z,53
2017-02-15T07:29:44.225Z,53
2017-02-15T07:30:50.233Z,53
2017-02-15T07:31:55.576Z,53
2017-02-15T07:33:01.571Z,53
2017-02-15T07:34:07.574Z,53
2017-02-15T07:35:13.582Z,53
2017-02-15T07:36:19.583Z,53
2017-02-15T07:37:24.928Z,53
2017-02-15T07:38:30.936Z,53
2017-02-15T07:39:36.938Z,53
2017-02-15T07:40:42.938Z,52
2017-02-15T07:41:48.936Z,52
2017-02-15T07:42:54.942Z,52
2017-02-15T07:44:00.948Z,52
2017-02-15T07:45:06.958Z,52
2017-02-15T07:46:12.959Z,52
2017-02-15T07:47:18.962Z,52
2017-02-15T07:48:24.960Z,52
2017-02-15T07:49:30.958Z,52
2017-02-15T07:50:36.961Z,52
2017-02-15T07:51:42.963Z,52
2017-02-15T07:52:48.960Z,52
2017-02-15T07:53:54.293Z,52
2017-02-15T07:54:59.638Z,52
2017-02-15T07:56:05.641Z,52
2017-02-15T07:57:11.650Z,52
2017-02-15T07:58:17.646Z,52
2017-02-15T07:59:23.651Z,52
2017-02-15T08:00:29.648Z,52
2017-02-15T08:01:35.649Z,52
2017-02-15T08:02:41.646Z,52
2017-02-15T08:03:47.651Z,52
2017-02-15T08:04:53.649Z,51
2017-02-15T08:05:59.656Z,51
2017-02-15T08:07:05.657Z,51
2017-02-15T08:08:11.653Z,51
2017-02-15T08:09:17.654Z,51
2017-02-15T08:10:23.008Z,51
2017-02-15T08:11:29.030Z,51
2017-02-15T08:12:34.405Z,51
2017-02-15T08:13:40.383Z,51
2017-02-15T08:14:46.402Z,51
2017-02-15T08:15:52.397Z,51
2017-02-15T08:16:58.397Z,50
2017-02-15T08:18:04.430Z,50
2017-02-15T08:19:10.424Z,49
2017-02-15T08:20:16.433Z,49
2017-02-15T08:21:22.433Z,48
2017-02-15T08:22:28.446Z,48
2017-02-15T08:23:34.463Z,47
2017-02-15T08:24:40.604Z,47
2017-02-15T08:25:46.474Z,46
2017-02-15T08:26:52.477Z,46
2017-02-15T08:27:58.487Z,46
2017-02-15T08:29:04.487Z,46
2017-02-15T08:30:10.638Z,44
2017-02-15T08:31:15.862Z,43
2017-02-15T08:32:21.205Z,43
2017-02-15T08:33:26.557Z,42
2017-02-15T08:34:32.561Z,43
2017-02-15T08:35:38.574Z,42
2017-02-15T08:36:44.591Z,42
2017-02-15T08:37:50.626Z,41
2017-02-15T08:38:56.635Z,41
2017-02-15T08:40:02.947Z,41
2017-02-15T08:41:09.011Z,41
2017-02-15T08:42:15.049Z,41
2017-02-15T08:43:20.004Z,40
2017-02-15T08:44:25.359Z,40
2017-02-15T08:45:30.267Z,40
2017-02-15T08:46:36.292Z,40
2017-02-15T08:47:41.208Z,40
2017-02-15T08:48:47.203Z,40
2017-02-15T08:49:53.214Z,40
2017-02-15T08:50:59.231Z,40
2017-02-15T08:52:05.259Z,41
2017-02-15T08:53:11.259Z,41
2017-02-15T08:54:17.263Z,41
2017-02-15T08:55:23.273Z,41
2017-02-15T08:56:29.274Z,40
2017-02-15T08:57:35.297Z,40
2017-02-15T08:58:41.307Z,40
2017-02-15T08:59:47.316Z,40
2017-02-15T09:00:53.327Z,41
2017-02-15T09:01:59.365Z,41
2017-02-15T09:03:04.285Z,41
2017-02-15T09:04:09.400Z,40
2017-02-15T09:05:15.449Z,40
2017-02-15T09:06:21.469Z,40
2017-02-15T09:07:27.617Z,41
2017-02-15T09:08:33.577Z,41
2017-02-15T09:09:39.597Z,41
2017-02-15T09:10:44.831Z,41
2017-02-15T09:11:50.811Z,40
2017-02-15T09:12:56.798Z,40
2017-02-15T09:14:02.814Z,38
2017-02-15T09:15:08.954Z,40
2017-02-15T09:16:14.963Z,38
2017-02-15T09:17:20.957Z,36
2017-02-15T09:18:26.976Z,35
2017-02-15T09:19:32.985Z,34
2017-02-15T09:20:39.098Z,35
2017-02-15T09:21:46.140Z,35
2017-02-15T09:22:51.779Z,33
2017-02-15T09:23:57.785Z,35
2017-02-15T09:25:03.816Z,36
2017-02-15T09:26:09.864Z,35
2017-02-15T09:27:15.916Z,35
2017-02-15T09:28:21.923Z,31
2017-02-15T09:29:27.929Z,29
2017-02-15T09:30:33.933Z,29
2017-02-15T09:31:41.755Z,31
2017-02-15T09:32:47.738Z,31
2017-02-15T09:33:53.753Z,29
2017-02-15T09:34:59.744Z,29
2017-02-15T09:36:05.088Z,28
2017-02-15T09:37:11.098Z,28
2017-02-15T09:38:17.115Z,28
2017-02-15T09:39:23.118Z,28
2017-02-15T09:40:29.492Z,28
2017-02-15T09:41:35.486Z,28
2017-02-15T09:42:40.840Z,28
2017-02-15T09:43:46.853Z,28
2017-02-15T09:44:52.849Z,28
2017-02-15T09:45:58.917Z,28
2017-02-15T09:47:03.877Z,28
2017-02-15T09:48:09.818Z,28
2017-02-15T09:49:15.196Z,28
2017-02-15T09:50:21.189Z,28
2017-02-15T09:51:27.191Z,28
2017-02-15T09:52:33.204Z,28
2017-02-15T09:53:39.209Z,28
2017-02-15T09:54:45.230Z,28
2017-02-15T09:55:51.237Z,28
2017-02-15T09:56:57.238Z,28
2017-02-15T09:58:03.244Z,28
2017-02-15T09:59:09.239Z,28
2017-02-15T10:00:15.244Z,28
2017-02-15T10:01:21.244Z,28
2017-02-15T10:02:27.271Z,28
2017-02-15T10:03:32.164Z,27
2017-02-15T10:04:38.188Z,27
2017-02-15T10:05:44.173Z,28
2017-02-15T10:06:49.530Z,27
2017-02-15T10:07:55.530Z,27
2017-02-15T10:09:01.536Z,27
2017-02-15T10:10:07.537Z,27
2017-02-15T10:11:13.548Z,27
2017-02-15T10:12:19.621Z,27
2017-02-15T10:13:25.639Z,27
2017-02-15T10:14:30.958Z,27
2017-02-15T10:15:36.318Z,27
2017-02-15T10:16:42.600Z,27
2017-02-15T10:17:48.524Z,27
2017-02-15T10:18:53.888Z,27
2017-02-15T10:19:59.895Z,27
2017-02-15T10:21:05.927Z,27
2017-02-15T10:22:11.944Z,27
2017-02-15T10:23:17.939Z,27
2017-02-15T10:24:23.954Z,27
2017-02-15T10:25:30.005Z,27
2017-02-15T10:26:36.001Z,26
2017-02-15T10:27:42.011Z,26
2017-02-15T10:28:48.017Z,26
2017-02-15T10:29:54.047Z,26
2017-02-15T10:31:00.340Z,26
2017-02-15T10:32:06.364Z,26
2017-02-15T10:33:12.374Z,26
2017-02-15T10:34:18.367Z,26
2017-02-15T10:35:24.373Z,26
2017-02-15T10:36:30.399Z,26
2017-02-15T10:37:36.402Z,26
2017-02-15T10:38:42.958Z,26
2017-02-15T10:39:48.612Z,26
2017-02-15T10:40:54.624Z,26
2017-02-15T10:42:00.623Z,26
2017-02-15T10:43:05.525Z,26
2017-02-15T10:44:11.556Z,26
2017-02-15T10:45:17.563Z,25
2017-02-15T10:46:22.478Z,24
2017-02-15T10:47:28.719Z,24
2017-02-15T10:48:34.572Z,24
2017-02-15T10:49:40.595Z,24
2017-02-15T10:50:46.609Z,24
2017-02-15T10:51:52.641Z,24
2017-02-15T10:52:58.658Z,24
2017-02-15T10:54:04.706Z,24
2017-02-15T10:55:10.703Z,24
2017-02-15T10:56:16.726Z,24
2017-02-15T10:57:22.742Z,24
2017-02-15T10:58:28.783Z,24
2017-02-15T10:59:34.828Z,24
2017-02-15T11:00:40.853Z,24
2017-02-15T11:01:46.887Z,24
2017-02-15T11:02:52.917Z,24
2017-02-15T11:03:58.946Z,23
2017-02-15T11:05:04.316Z,23
2017-02-15T11:06:10.330Z,23
2017-02-15T11:07:16.361Z,23
2017-02-15T11:08:22.384Z,23
2017-02-15T11:09:28.414Z,23
2017-02-15T11:10:34.456Z,23
2017-02-15T11:11:39.797Z,23
2017-02-15T11:12:45.823Z,23
2017-02-15T11:13:51.849Z,23
2017-02-15T11:14:57.862Z,23
2017-02-15T11:16:02.136Z,23
2017-02-15T11:17:08.151Z,23
2017-02-15T11:18:13.505Z,23
2017-02-15T11:19:19.556Z,22
2017-02-15T11:20:25.590Z,22
2017-02-15T11:21:31.627Z,23
2017-02-15T11:22:37.648Z,23
2017-02-15T11:23:43.703Z,23
2017-02-15T11:24:49.715Z,22
2017-02-15T11:25:56.141Z,23
2017-02-15T11:27:01.770Z,23
2017-02-15T11:28:07.791Z,22
2017-02-15T11:29:13.832Z,23
2017-02-15T11:30:19.848Z,22
2017-02-15T11:31:25.868Z,22
2017-02-15T11:32:31.898Z,22
2017-02-15T11:33:37.913Z,22
2017-02-15T11:34:43.942Z,22
2017-02-15T11:35:49.968Z,21
2017-02-15T11:36:55.320Z,22
2017-02-15T11:38:01.339Z,22
2017-02-15T11:39:07.361Z,22
2017-02-15T11:40:13.397Z,21
2017-02-15T11:41:19.401Z,21
2017-02-15T11:42:25.501Z,21
2017-02-15T11:43:31.770Z,21
2017-02-15T11:44:37.592Z,21
2017-02-15T11:45:43.630Z,21
2017-02-15T11:46:49.170Z,21
2017-02-15T11:47:55.192Z,21
2017-02-15T11:49:01.210Z,21
2017-02-15T11:50:07.228Z,21
2017-02-15T11:51:13.252Z,21
2017-02-15T11:52:19.274Z,21
2017-02-15T11:53:25.292Z,21
2017-02-15T11:54:31.312Z,21
2017-02-15T11:55:37.331Z,21
2017-02-15T11:56:43.349Z,21
2017-02-15T11:57:49.367Z,21
2017-02-15T11:58:55.387Z,21
2017-02-15T12:00:01.402Z,21
2017-02-15T12:01:07.424Z,21
2017-02-15T12:02:13.586Z,21
2017-02-15T12:03:19.607Z,21
2017-02-15T12:04:25.632Z,21
2017-02-15T12:05:30.979Z,21
2017-02-15T12:06:35.899Z,21
2017-02-15T12:07:41.561Z,21
2017-02-15T12:08:46.914Z,21
2017-02-15T12:09:52.934Z,21
2017-02-15T12:10:58.952Z,21
2017-02-15T12:12:04.971Z,21
2017-02-15T12:13:10.994Z,21
2017-02-15T12:14:17.014Z,21
2017-02-15T12:15:23.032Z,21
2017-02-15T12:16:29.114Z,21
2017-02-15T12:17:35.137Z,21
2017-02-15T12:18:41.155Z,21
2017-02-15T12:19:47.208Z,21
2017-02-15T12:20:53.229Z,21
2017-02-15T12:21:59.249Z,21
2017-02-15T12:23:05.268Z,21
2017-02-15T12:24:10.625Z,21
2017-02-15T12:25:16.646Z,21
2017-02-15T12:26:22.736Z,21
2017-02-15T12:27:28.755Z,21
2017-02-15T12:28:34.773Z,21
2017-02-15T12:29:40.788Z,21
2017-02-15T12:30:45.705Z,21
2017-02-15T12:31:50.633Z,21
2017-02-15T12:32:56.656Z,21
2017-02-15T12:34:02.016Z,20
2017-02-15T12:35:08.037Z,20
2017-02-15T12:36:12.962Z,20
2017-02-15T12:37:17.901Z,21
2017-02-15T12:38:23.919Z,21
2017-02-15T12:39:29.944Z,21
2017-02-15T12:40:35.972Z,21
2017-02-15T12:41:41.997Z,21
2017-02-15T12:42:48.297Z,21
2017-02-15T12:43:54.198Z,20
2017-02-15T12:45:00.286Z,21
2017-02-15T12:46:06.295Z,21
2017-02-15T12:47:11.215Z,21
2017-02-15T12:49:24.899Z,21
2017-02-15T12:50:30.925Z,21
2017-02-15T12:51:36.938Z,21
2017-02-15T12:52:42.967Z,21
2017-02-15T12:53:49.106Z,21
2017-02-15T12:54:55.129Z,21
2017-02-15T12:56:01.183Z,21
2017-02-15T12:57:07.174Z,21
2017-02-15T12:58:13.415Z,21
2017-02-15T12:59:19.419Z,21
2017-02-15T13:00:25.457Z,21
2017-02-15T13:01:31.482Z,21
2017-02-15T13:02:37.850Z,20
2017-02-15T13:03:43.775Z,20
2017-02-15T13:04:49.846Z,20
2017-02-15T13:05:55.866Z,20
2017-02-15T13:07:01.890Z,20
2017-02-15T13:08:08.346Z,20
2017-02-15T13:09:14.142Z,20
2017-02-15T13:10:19.532Z,20
2017-02-15T13:11:25.513Z,20
2017-02-15T13:12:31.561Z,20
2017-02-15T13:13:36.902Z,20
2017-02-15T13:14:42.926Z,20
2017-02-15T13:15:48.958Z,20
2017-02-15T13:16:54.964Z,20
2017-02-15T13:18:01.002Z,20
2017-02-15T13:19:07.293Z,20
2017-02-15T13:20:13.198Z,20
2017-02-15T13:21:20.318Z,20
2017-02-15T13:22:25.286Z,20
2017-02-15T13:23:32.775Z,20
2017-02-15T13:24:37.622Z,20
2017-02-15T13:25:52.461Z,20
2017-02-15T13:26:59.489Z,20
2017-02-15T13:28:05.885Z,20
2017-02-15T13:29:11.652Z,20
2017-02-15T13:30:17.626Z,20
2017-02-15T13:31:23.649Z,20
2017-02-15T13:32:29.670Z,20
2017-02-15T13:33:34.368Z,20
2017-02-15T13:34:40.391Z,20
2017-02-15T13:35:46.419Z,20
2017-02-15T13:36:52.479Z,20
2017-02-15T13:37:58.529Z,20
2017-02-15T13:39:04.557Z,21
2017-02-15T13:40:10.578Z,21
2017-02-15T13:41:15.936Z,21
2017-02-15T13:42:20.872Z,21
2017-02-15T13:43:26.875Z,20
2017-02-15T13:44:31.802Z,21
2017-02-15T13:45:37.846Z,21
2017-02-15T13:46:43.179Z,21
2017-02-15T13:47:48.539Z,21
2017-02-15T13:48:54.555Z,21
2017-02-15T13:50:00.588Z,21
2017-02-15T13:51:06.593Z,21
2017-02-15T13:52:12.635Z,21
2017-02-15T13:53:18.631Z,21
2017-02-15T13:54:23.564Z,21
2017-02-15T13:55:29.584Z,21
2017-02-15T13:56:35.618Z,21
2017-02-15T13:57:41.653Z,21
2017-02-15T13:58:47.659Z,21
2017-02-15T13:59:53.684Z,21
2017-02-15T14:00:59.994Z,21
2017-02-15T14:02:06.080Z,21
2017-02-15T14:03:11.376Z,21
2017-02-15T14:04:17.413Z,21
2017-02-15T14:05:23.429Z,21
2017-02-15T14:06:29.451Z,21
2017-02-15T14:07:35.476Z,21
2017-02-15T14:08:41.497Z,21
2017-02-15T14:09:46.853Z,21
2017-02-15T14:10:52.870Z,21
2017-02-15T14:11:58.230Z,21
2017-02-15T14:13:04.250Z,21
2017-02-15T14:14:10.272Z,21
2017-02-15T14:15:16.298Z,21
2017-02-15T14:16:22.320Z,21
2017-02-15T14:17:27.241Z,21
2017-02-15T14:18:33.260Z,21
2017-02-15T14:19:39.286Z,21
2017-02-15T14:20:44.209Z,21
2017-02-15T14:21:50.229Z,22
2017-02-15T14:22:56.246Z,22
2017-02-15T14:24:02.266Z,22
2017-02-15T14:25:08.288Z,22
2017-02-15T14:26:14.307Z,22
2017-02-15T14:27:19.663Z,22
2017-02-15T14:28:25.681Z,22
2017-02-15T14:29:31.698Z,22
2017-02-15T14:30:37.052Z,22
2017-02-15T14:31:43.075Z,22
2017-02-15T14:32:47.335Z,22
2017-02-15T14:33:52.690Z,22
2017-02-15T14:34:58.054Z,22
2017-02-15T14:36:03.412Z,22
2017-02-15T14:37:09.431Z,22
2017-02-15T14:38:15.459Z,22
2017-02-15T14:39:21.467Z,22
2017-02-15T14:40:27.485Z,22
2017-02-15T14:41:33.506Z,22
2017-02-15T14:42:38.868Z,22
2017-02-15T14:43:44.885Z,22
2017-02-15T14:44:50.903Z,22
2017-02-15T14:45:56.926Z,22
2017-02-15T14:47:02.947Z,22
2017-02-15T14:48:08.968Z,22
2017-02-15T14:49:13.891Z,22
2017-02-15T14:50:19.913Z,22
2017-02-15T14:51:25.940Z,22
2017-02-15T14:52:31.951Z,22
2017-02-15T14:53:36.879Z,23
2017-02-15T14:54:42.899Z,23
2017-02-15T14:55:48.259Z,23
2017-02-15T14:56:54.279Z,23
2017-02-15T14:58:00.305Z,23
2017-02-15T14:59:06.328Z,23
2017-02-15T15:00:12.349Z,23
2017-02-15T15:01:18.364Z,23
2017-02-15T15:02:24.386Z,23
2017-02-15T15:03:30.410Z,23
2017-02-15T15:04:36.430Z,23
2017-02-15T15:05:42.450Z,23
2017-02-15T15:06:48.470Z,23
2017-02-15T15:07:54.487Z,24
2017-02-15T15:08:59.864Z,23
2017-02-15T15:10:05.883Z,23
2017-02-15T15:11:10.806Z,23
2017-02-15T15:12:16.823Z,23
2017-02-15T15:13:22.182Z,24
2017-02-15T15:14:28.204Z,24
2017-02-15T15:15:34.227Z,24
2017-02-15T15:16:40.242Z,24
2017-02-15T15:17:45.604Z,24
2017-02-15T15:18:50.298Z,24
2017-02-15T15:19:56.318Z,24
2017-02-15T15:21:02.345Z,24
2017-02-15T15:22:07.261Z,24
2017-02-15T15:23:13.291Z,24
2017-02-15T15:24:19.308Z,24
2017-02-15T15:25:25.327Z,24
2017-02-15T15:26:31.350Z,24
2017-02-15T15:27:37.389Z,24
2017-02-15T15:28:43.409Z,24
2017-02-15T15:29:49.431Z,24
2017-02-15T15:30:55.453Z,24
2017-02-15T15:32:00.809Z,24
2017-02-15T15:33:06.159Z,24
2017-02-15T15:34:11.081Z,24
2017-02-15T15:35:17.097Z,24
2017-02-15T15:36:23.119Z,25
2017-02-15T15:37:29.139Z,25
2017-02-15T15:38:35.156Z,25
2017-02-15T15:39:41.170Z,25
2017-02-15T15:40:47.188Z,25